Terminal Aerodrome Forecast
Issued by NWS Goodland, KS

Home | Current Version | Previous Version | Text Only | Print | Product List | Glossary On
Versions: 1 2 3 4 5 6 7 8 9 10 11 12
641
FTUS43 KGLD 251019 AAB
TAFGLD
TAF AMD
KGLD 251019Z 2510/2606 35015G20KT P6SM BKN017 OVC024
     FM251100 02015KT P6SM SCT005 BKN020
     FM251200 35013G19KT P6SM SCT005 BKN020
     FM251800 36012KT P6SM SCT030 BKN150
     FM252300 03013KT P6SM SCT060 BKN130
     FM260500 36015G23KT P6SM OVC015=

USA.gov is the U.S. government's official web portal to all federal, state and local government web resources and services.